Time;durP1;ratioP1;P1;durP2;ratioP2;P2;SDS_P1;SDS_P2;PMS_P1;PMS_P2;Temp;Humidity;BMP_temperature;BMP_pressure;BME280_temperature;BME280_humidity;BME280_pressure;Samples;Min_cycle;Max_cycle;Signal;HPM_P1;HPM_P2
2021/09/02 00:00:43;;;;;;;11.05;4.97;;;;;;;12.46;71.74;100748.95;1741591;82;27352;-64
2021/09/02 00:03:09;;;;;;;12.70;5.00;;;;;;;12.42;71.82;100747.41;1722469;82;25776;-64
2021/09/02 00:05:35;;;;;;;19.17;6.50;;;;;;;12.39;71.68;100752.66;1741628;82;25796;-64
2021/09/02 00:08:03;;;;;;;10.35;4.80;;;;;;;12.35;72.03;100753.84;1741556;82;25780;-64
2021/09/02 00:10:29;;;;;;;12.18;5.20;;;;;;;12.31;72.16;100754.22;1741768;82;25634;-64
2021/09/02 00:12:55;;;;;;;15.23;5.10;;;;;;;12.27;72.03;100754.58;1741705;82;27301;-63
2021/09/02 00:15:23;;;;;;;14.03;6.22;;;;;;;12.24;72.27;100757.37;1741591;82;25799;-63
2021/09/02 00:17:49;;;;;;;11.95;5.15;;;;;;;12.22;72.43;100754.70;1741685;82;25622;-64
2021/09/02 00:20:16;;;;;;;10.88;5.22;;;;;;;12.18;72.38;100751.81;1741670;82;25668;-64
2021/09/02 00:22:43;;;;;;;10.58;5.72;;;;;;;12.15;72.41;100752.42;1741591;82;25675;-64
2021/09/02 00:25:11;;;;;;;10.88;5.65;;;;;;;12.13;72.57;100751.38;1741617;82;27532;-64
2021/09/02 00:27:38;;;;;;;14.03;5.60;;;;;;;12.08;72.57;100751.49;1741460;82;25744;-64
2021/09/02 00:30:06;;;;;;;10.03;5.80;;;;;;;12.05;72.56;100752.09;1741741;82;26290;-64
2021/09/02 00:32:33;;;;;;;11.03;5.25;;;;;;;12.03;72.48;100752.17;1741636;82;25681;-64
2021/09/02 00:35:00;;;;;;;9.43;5.55;;;;;;;11.99;72.75;100747.13;1741643;82;25678;-64
2021/09/02 00:37:26;;;;;;;10.53;5.30;;;;;;;11.93;72.94;100747.22;1741625;82;28111;-64
2021/09/02 00:39:52;;;;;;;10.95;5.40;;;;;;;11.92;73.24;100748.91;1741499;81;25703;-64
2021/09/02 00:42:18;;;;;;;12.25;5.33;;;;;;;11.88;73.37;100754.09;1741597;82;30222;-64
2021/09/02 00:44:47;;;;;;;11.63;5.45;;;;;;;11.87;73.55;100751.70;1741703;82;25693;-63
2021/09/02 00:47:24;;;;;;;11.35;5.45;;;;;;;11.85;73.60;100754.72;1741823;82;25911;-63
2021/09/02 00:49:53;;;;;;;17.62;5.67;;;;;;;11.82;73.72;100749.91;1741622;82;27797;-63
2021/09/02 00:52:24;;;;;;;11.75;5.37;;;;;;;11.81;73.79;100759.70;1741711;82;25739;-64
2021/09/02 00:54:57;;;;;;;11.88;5.47;;;;;;;11.77;73.76;100760.30;1741297;82;25749;-64
2021/09/02 00:57:27;;;;;;;10.10;5.65;;;;;;;11.75;73.94;100758.45;1741558;82;25747;-64
2021/09/02 00:59:58;;;;;;;8.30;5.75;;;;;;;11.73;74.16;100762.56;1741692;82;25765;-64
2021/09/02 01:02:27;;;;;;;11.95;5.50;;;;;;;11.71;74.34;100760.19;1741606;82;27975;-64
2021/09/02 01:04:55;;;;;;;12.55;5.90;;;;;;;11.71;74.37;100760.72;1741580;82;25725;-64
2021/09/02 01:07:23;;;;;;;14.20;6.00;;;;;;;11.69;74.42;100758.87;1722727;82;25776;-64
2021/09/02 01:09:52;;;;;;;13.03;5.30;;;;;;;;;;1741794;82;26255;-64
2021/09/02 01:12:39;;;;;;;13.10;5.78;;;;;;;11.67;74.63;100765.16;1741765;82;25725;-64
2021/09/02 01:15:13;;;;;;;13.83;6.03;;;;;;;11.65;74.73;100766.81;1741710;82;27364;-64
2021/09/02 01:17:45;;;;;;;15.58;6.22;;;;;;;11.64;74.62;100767.91;1741380;82;25705;-64
2021/09/02 01:20:15;;;;;;;9.50;5.62;;;;;;;11.63;74.83;100773.09;1741658;82;25713;-64
2021/09/02 01:22:47;;;;;;;16.07;6.00;;;;;;;11.63;74.81;100772.27;1741526;82;25768;-64
2021/09/02 01:25:19;;;;;;;12.88;5.20;;;;;;;11.62;74.95;100771.48;1741730;82;25879;-64
2021/09/02 01:27:50;;;;;;;13.35;5.22;;;;;;;11.60;75.20;100777.77;1741777;82;27419;-64
2021/09/02 01:30:18;;;;;;;10.95;5.28;;;;;;;11.59;75.27;100776.14;1741591;82;25726;-64
2021/09/02 01:32:47;;;;;;;15.65;5.75;;;;;;;11.57;75.21;100772.38;1741584;82;25724;-64
2021/09/02 01:35:16;;;;;;;11.63;5.35;;;;;;;11.57;75.51;100775.09;1741745;82;26236;-64
2021/09/02 01:37:55;;;;;;;14.23;5.87;;;;;;;11.55;75.67;100782.73;1741657;82;25670;-64
2021/09/02 01:40:30;;;;;;;11.08;5.25;;;;;;;11.55;75.75;100784.08;1750200;81;27357;-64
2021/09/02 01:42:57;;;;;;;10.18;5.28;;;;;;;11.54;75.89;100773.02;1759813;81;26290;-64
2021/09/02 01:45:24;;;;;;;11.05;5.65;;;;;;;11.53;75.77;100773.31;1759874;81;26395;-64
2021/09/02 01:47:50;;;;;;;12.75;6.00;;;;;;;11.51;75.90;100769.55;1759885;81;26436;-64
2021/09/02 01:50:22;;;;;;;11.95;5.33;;;;;;;11.51;76.04;100773.62;1760004;81;25790;-64
2021/09/02 01:52:53;;;;;;;11.35;4.97;;;;;;;11.50;76.13;100773.35;1759815;81;27401;-64
2021/09/02 01:55:22;;;;;;;16.05;6.20;;;;;;;11.50;76.26;100778.77;1759742;81;25879;-64
2021/09/02 01:57:49;;;;;;;14.23;5.87;;;;;;;11.50;76.31;100773.91;1760055;81;25640;-64
2021/09/02 02:00:17;;;;;;;12.20;5.05;;;;;;;11.48;76.21;100775.57;1759760;81;25767;-64
2021/09/02 02:02:44;;;;;;;12.88;5.83;;;;;;;11.47;76.32;100774.52;1760175;81;26240;-64
2021/09/02 02:05:12;;;;;;;9.85;5.95;;;;;;;11.45;76.38;100776.17;1759873;81;27927;-64
2021/09/02 02:07:39;;;;;;;12.88;5.62;;;;;;;11.43;76.17;100768.91;1759744;80;25723;-64
2021/09/02 02:10:11;;;;;;;13.70;5.62;;;;;;;11.41;76.29;100775.19;1759916;81;25638;-64
2021/09/02 02:12:37;;;;;;;12.18;6.15;;;;;;;11.39;76.44;100777.37;1759939;81;25783;-64
2021/09/02 02:15:06;;;;;;;10.60;5.53;;;;;;;11.38;76.44;100777.14;1759892;81;25648;-64
2021/09/02 02:17:33;;;;;;;14.07;6.03;;;;;;;11.35;76.41;100779.09;1760249;81;27491;-64
2021/09/02 02:20:00;;;;;;;13.65;6.15;;;;;;;11.32;76.36;100768.86;1760179;81;25651;-64
2021/09/02 02:22:26;;;;;;;13.13;5.70;;;;;;;11.29;76.53;100774.34;1760214;81;25724;-64
2021/09/02 02:24:52;;;;;;;11.63;5.65;;;;;;;11.29;76.64;100775.69;1760462;81;25680;-64
2021/09/02 02:27:18;;;;;;;10.70;5.87;;;;;;;11.27;76.70;100775.20;1760575;81;25678;-63
2021/09/02 02:29:45;;;;;;;14.07;6.33;;;;;;;11.24;76.84;100773.09;1760330;81;27373;-64
2021/09/02 02:32:11;;;;;;;14.18;6.40;;;;;;;11.23;76.86;100766.61;1760362;81;26307;-64
2021/09/02 02:34:39;;;;;;;13.78;5.40;;;;;;;11.20;77.05;100763.95;1760499;81;25704;-64
2021/09/02 02:37:05;;;;;;;11.60;5.45;;;;;;;11.18;76.95;100776.42;1760352;81;25869;-64
2021/09/02 02:39:37;;;;;;;12.05;4.83;;;;;;;11.16;76.89;100773.78;1760156;81;25756;-64
2021/09/02 02:42:00;;;;;;;11.95;5.90;;;;;;;11.13;76.99;100776.53;1740930;82;28073;-64
2021/09/02 02:44:26;;;;;;;15.60;6.33;;;;;;;11.11;76.87;100773.32;1741557;82;25741;-64
2021/09/02 02:46:52;;;;;;;11.53;5.50;;;;;;;11.09;77.03;100774.18;1741736;82;25638;-64
2021/09/02 02:49:19;;;;;;;9.20;5.30;;;;;;;11.06;77.01;100765.86;1741631;82;26405;-64
2021/09/02 02:51:45;;;;;;;14.68;5.85;;;;;;;11.02;77.31;100765.10;1741721;82;25744;-64
2021/09/02 02:54:11;;;;;;;12.23;6.10;;;;;;;10.99;77.33;100764.34;1741690;82;28224;-64
2021/09/02 02:56:37;;;;;;;19.27;7.47;;;;;;;10.98;77.24;100770.05;1741619;82;33637;-64
2021/09/02 02:59:03;;;;;;;13.80;6.15;;;;;;;10.95;77.44;100767.97;1741712;82;25715;-64
2021/09/02 03:01:30;;;;;;;12.68;6.05;;;;;;;10.91;77.36;100765.59;1741798;82;25764;-64
2021/09/02 03:03:56;;;;;;;13.75;5.62;;;;;;;10.90;77.50;100767.51;1741773;82;25728;-63
2021/09/02 03:06:22;;;;;;;16.77;6.17;;;;;;;10.88;77.87;100762.13;1741763;82;27312;-64
2021/09/02 03:08:48;;;;;;;16.57;6.03;;;;;;;10.86;77.96;100763.77;1741576;82;25677;-64
2021/09/02 03:11:16;;;;;;;19.67;7.10;;;;;;;10.83;78.00;100761.12;1741721;82;25739;-64
2021/09/02 03:13:42;;;;;;;12.93;6.30;;;;;;;10.83;77.95;100758.98;1741673;82;25744;-64
2021/09/02 03:16:09;;;;;;;12.53;5.75;;;;;;;10.80;78.05;100754.16;1741785;82;25770;-64
2021/09/02 03:18:35;;;;;;;11.63;5.70;;;;;;;10.79;78.22;100755.25;1741657;82;27567;-64
2021/09/02 03:21:02;;;;;;;13.10;6.12;;;;;;;10.77;78.27;100756.91;1741575;82;25661;-64
2021/09/02 03:23:28;;;;;;;12.95;6.15;;;;;;;10.76;78.23;100760.73;1741697;82;25698;-64
2021/09/02 03:25:55;;;;;;;15.68;6.12;;;;;;;10.74;78.34;100765.61;1741594;82;27832;-64
2021/09/02 03:28:22;;;;;;;12.00;6.55;;;;;;;10.74;78.28;100768.31;1741721;82;25629;-64
2021/09/02 03:30:48;;;;;;;17.02;6.67;;;;;;;10.73;78.29;100769.44;1741725;82;27283;-63
2021/09/02 03:33:14;;;;;;;12.70;5.67;;;;;;;10.71;78.40;100771.64;1741541;82;25771;-64
2021/09/02 03:35:41;;;;;;;18.25;7.20;;;;;;;10.70;78.30;100775.44;1741716;82;25988;-63
2021/09/02 03:38:07;;;;;;;12.35;6.42;;;;;;;10.69;78.22;100773.03;1741702;82;25715;-64
2021/09/02 03:40:33;;;;;;;12.98;5.95;;;;;;;10.68;78.22;100788.47;1726350;81;25720;-64
2021/09/02 03:43:00;;;;;;;13.35;6.33;;;;;;;10.67;78.21;100781.44;1755492;81;27170;-64
2021/09/02 03:45:26;;;;;;;16.70;6.58;;;;;;;10.64;78.34;100792.84;1755441;81;25724;-64
2021/09/02 03:47:52;;;;;;;15.50;7.42;;;;;;;10.63;78.34;100795.31;1755483;81;25719;-64
2021/09/02 03:50:19;;;;;;;16.85;6.55;;;;;;;10.60;78.34;100789.14;1755480;81;25682;-64
2021/09/02 03:52:46;;;;;;;12.73;6.42;;;;;;;10.59;78.53;100787.52;1755573;81;25646;-64
2021/09/02 03:55:13;;;;;;;17.12;6.25;;;;;;;10.57;78.59;100792.44;1755467;81;26867;-64
2021/09/02 03:57:40;;;;;;;14.35;6.78;;;;;;;10.54;78.69;100797.91;1755450;81;25715;-64
2021/09/02 04:00:10;;;;;;;12.70;5.87;;;;;;;10.53;78.67;100797.64;1755549;81;25698;-64
2021/09/02 04:02:37;;;;;;;15.03;6.72;;;;;;;10.51;78.76;100794.43;1755615;81;26379;-64
2021/09/02 04:05:06;;;;;;;21.57;6.22;;;;;;;10.51;78.80;100793.64;1755545;81;25772;-64
2021/09/02 04:07:33;;;;;;;19.05;6.72;;;;;;;10.49;78.98;100797.98;1755646;80;27315;-64
2021/09/02 04:09:59;;;;;;;13.62;6.05;;;;;;;10.48;79.30;100793.66;1755377;81;25773;-65
2021/09/02 04:12:26;;;;;;;14.93;6.33;;;;;;;10.49;79.20;100797.16;1755507;81;25715;-64
2021/09/02 04:14:52;;;;;;;14.80;7.60;;;;;;;10.50;79.44;100794.72;1755455;81;25734;-64
2021/09/02 04:17:19;;;;;;;14.93;6.55;;;;;;;10.52;79.58;100791.99;1733643;81;25671;-64
2021/09/02 04:19:45;;;;;;;17.15;6.22;;;;;;;10.56;79.90;100784.09;1755464;80;27613;-64
2021/09/02 04:22:11;;;;;;;15.05;6.70;;;;;;;10.58;80.20;100782.67;1755344;81;25691;-64
2021/09/02 04:24:37;;;;;;;13.95;6.45;;;;;;;10.63;80.31;100775.03;1755584;81;25666;-64
2021/09/02 04:27:05;;;;;;;14.70;7.08;;;;;;;10.64;80.53;100777.97;1755562;81;25687;-64
2021/09/02 04:29:31;;;;;;;18.80;6.47;;;;;;;10.68;80.45;100779.55;1753741;81;25720;-63
2021/09/02 04:31:58;;;;;;;13.50;6.67;;;;;;;10.68;80.38;100787.11;1755483;81;27323;-63
2021/09/02 04:34:24;;;;;;;16.85;7.08;;;;;;;10.70;80.54;100784.11;1755326;81;25655;-64
2021/09/02 04:36:51;;;;;;;19.17;6.87;;;;;;;10.73;80.66;100788.38;1755532;81;25635;-64
2021/09/02 04:39:17;;;;;;;14.05;6.35;;;;;;;10.75;80.77;100777.26;1755446;81;25766;-63
2021/09/02 04:41:43;;;;;;;13.50;6.03;;;;;;;10.78;80.91;100772.05;1755437;81;25612;-64
2021/09/02 04:44:09;;;;;;;16.50;6.72;;;;;;;10.83;81.03;100777.93;1755423;81;27376;-63
2021/09/02 04:46:37;;;;;;;16.77;6.65;;;;;;;10.87;81.09;100770.80;1755394;81;25751;-64
2021/09/02 04:49:03;;;;;;;14.83;6.45;;;;;;;10.94;81.19;100775.83;1755448;81;25698;-64
2021/09/02 04:51:29;;;;;;;14.20;5.78;;;;;;;10.97;81.21;100773.88;1755628;80;25672;-63
2021/09/02 04:53:55;;;;;;;13.18;6.72;;;;;;;11.01;81.06;100773.52;1754443;81;25696;-63
2021/09/02 04:56:22;;;;;;;20.70;6.62;;;;;;;11.05;81.25;100777.25;1754374;81;28098;-62
2021/09/02 04:58:48;;;;;;;13.65;6.70;;;;;;;11.11;81.36;100772.53;1754356;81;25784;-61
2021/09/02 05:01:14;;;;;;;15.88;7.65;;;;;;;11.17;81.66;100769.42;1726217;82;25880;-69
2021/09/02 05:03:40;;;;;;;13.95;6.47;;;;;;;11.24;81.81;100770.38;1725840;83;27873;-69
2021/09/02 05:06:07;;;;;;;14.63;7.15;;;;;;;11.32;82.10;100768.32;1725879;83;25757;-69
2021/09/02 05:08:33;;;;;;;16.65;6.75;;;;;;;11.42;82.28;100765.94;1725909;83;29714;-68
2021/09/02 05:10:59;;;;;;;21.82;10.65;;;;;;;11.49;82.03;100773.13;1725852;82;25687;-68
2021/09/02 05:13:26;;;;;;;20.32;7.15;;;;;;;11.56;82.26;100774.86;1725961;83;25750;-68
2021/09/02 05:15:52;;;;;;;14.87;7.20;;;;;;;11.65;82.38;100772.23;1725900;83;25678;-68
2021/09/02 05:18:18;;;;;;;19.45;7.90;;;;;;;11.74;82.33;100770.95;1725980;83;25789;-69
2021/09/02 05:20:44;;;;;;;24.00;9.70;;;;;;;11.82;82.31;100771.59;1725824;83;27327;-68
2021/09/02 05:23:10;;;;;;;22.13;9.75;;;;;;;11.89;82.17;100774.67;1725919;82;25809;-67
2021/09/02 05:25:37;;;;;;;22.70;9.18;;;;;;;11.95;82.00;100768.07;1725898;83;25679;-66
2021/09/02 05:28:04;;;;;;;19.62;8.60;;;;;;;12.02;81.66;100769.54;1725736;82;25693;-66
2021/09/02 05:30:31;;;;;;;18.42;7.85;;;;;;;12.07;81.56;100770.24;1725128;81;25706;-66
2021/09/02 05:32:57;;;;;;;13.85;7.12;;;;;;;12.11;81.31;100765.00;1724294;82;27405;-66
2021/09/02 05:35:23;;;;;;;18.95;7.58;;;;;;;12.16;81.36;100760.81;1724378;82;27167;-66
2021/09/02 05:37:50;;;;;;;15.30;6.97;;;;;;;12.22;81.49;100764.98;1724547;83;25821;-66
2021/09/02 05:40:16;;;;;;;15.68;6.92;;;;;;;12.29;81.43;100772.69;1701631;83;25849;-65
2021/09/02 05:42:42;;;;;;;14.95;7.47;;;;;;;12.35;81.32;100774.75;1715005;82;25864;-66
2021/09/02 05:45:10;;;;;;;18.10;7.17;;;;;;;12.41;81.10;100770.78;1714987;83;27403;-66
2021/09/02 05:47:36;;;;;;;22.62;8.48;;;;;;;12.46;81.09;100772.83;1715401;82;25788;-66
2021/09/02 05:50:07;;;;;;;16.50;7.35;;;;;;;12.54;81.26;100778.05;1756735;81;25672;-66
2021/09/02 05:52:34;;;;;;;21.87;8.68;;;;;;;12.66;81.27;100766.63;1715524;83;25788;-66
2021/09/02 05:55:00;;;;;;;22.52;8.00;;;;;;;12.76;81.10;100769.07;1722626;81;25640;-66
2021/09/02 05:57:27;;;;;;;17.85;8.25;;;;;;;12.86;81.13;100767.44;1756683;81;27281;-66
2021/09/02 05:59:53;;;;;;;17.10;7.33;;;;;;;13.00;81.62;100761.91;1715445;83;25764;-66
2021/09/02 06:02:20;;;;;;;19.15;8.03;;;;;;;13.14;81.46;100765.86;1715479;82;25779;-66
2021/09/02 06:04:46;;;;;;;13.15;7.03;;;;;;;13.26;81.06;100769.34;1715515;82;25761;-66
2021/09/02 06:07:12;;;;;;;17.70;7.12;;;;;;;13.34;80.48;100769.16;1715620;82;25764;-66
2021/09/02 06:09:39;;;;;;;19.17;7.95;;;;;;;13.39;80.31;100771.16;1721528;82;27368;-66
2021/09/02 06:12:07;;;;;;;18.32;7.50;;;;;;;13.44;79.88;100766.94;1745968;80;25815;-65
2021/09/02 06:14:33;;;;;;;13.10;6.40;;;;;;;13.51;79.89;100765.69;1778752;80;25662;-65
2021/09/02 06:16:59;;;;;;;16.12;6.55;;;;;;;13.56;79.47;100758.73;1778673;80;25645;-66
2021/09/02 06:19:26;;;;;;;14.87;6.05;;;;;;;13.58;79.12;100765.45;1778858;80;25922;-65
2021/09/02 06:21:54;;;;;;;12.73;5.65;;;;;;;13.59;78.69;100769.77;1778707;80;27388;-66
2021/09/02 06:24:20;;;;;;;13.50;6.83;;;;;;;13.59;78.69;100773.84;1746600;80;25749;-66
2021/09/02 06:26:46;;;;;;;14.87;5.62;;;;;;;13.63;78.71;100768.58;1778825;80;25789;-66
2021/09/02 06:29:13;;;;;;;12.82;6.22;;;;;;;13.64;78.54;100768.27;1778826;80;25755;-66
2021/09/02 06:31:39;;;;;;;16.17;6.83;;;;;;;13.71;78.68;100773.80;1778710;80;25729;-65
2021/09/02 06:34:05;;;;;;;10.10;5.10;;;;;;;13.70;78.11;100767.54;1778753;80;27367;-66
2021/09/02 06:36:32;;;;;;;13.45;5.45;;;;;;;13.74;78.23;100767.16;1778747;80;25656;-66
2021/09/02 06:38:58;;;;;;;15.98;5.90;;;;;;;13.79;78.17;100764.28;1778505;80;26399;-66
2021/09/02 06:41:24;;;;;;;14.05;5.65;;;;;;;13.84;78.50;100761.95;1778413;80;25703;-66
2021/09/02 06:43:51;;;;;;;10.53;5.08;;;;;;;13.90;78.20;100772.13;1778564;80;25640;-66
2021/09/02 06:46:17;;;;;;;13.60;4.67;;;;;;;13.95;77.85;100766.53;1778506;80;28111;-66
2021/09/02 06:48:43;;;;;;;16.42;5.05;;;;;;;13.98;77.65;100763.97;1778464;80;25823;-66
2021/09/02 06:51:10;;;;;;;13.10;5.35;;;;;;;14.03;77.37;100765.73;1777774;80;25719;-66
2021/09/02 06:53:36;;;;;;;14.90;5.17;;;;;;;14.14;77.52;100766.20;1778183;80;25736;-66
2021/09/02 06:56:04;;;;;;;11.15;4.83;;;;;;;14.22;77.33;100766.75;1746120;80;25732;-66
2021/09/02 06:58:30;;;;;;;9.28;4.65;;;;;;;14.26;76.76;100748.66;1778503;80;27319;-66
2021/09/02 07:00:58;;;;;;;10.03;4.53;;;;;;;14.31;76.51;100762.66;1778489;80;25916;-66
2021/09/02 07:03:24;;;;;;;13.32;4.95;;;;;;;14.28;75.84;100774.97;1778477;80;25637;-66
2021/09/02 07:05:51;;;;;;;9.20;4.45;;;;;;;14.29;75.96;100770.35;1778440;80;26554;-66
2021/09/02 07:08:17;;;;;;;10.90;5.03;;;;;;;14.30;75.77;100774.11;1778576;80;26388;-66
2021/09/02 07:10:44;;;;;;;9.90;4.65;;;;;;;14.30;75.59;100773.30;1778967;80;27452;-66
2021/09/02 07:13:10;;;;;;;9.83;5.00;;;;;;;14.25;75.08;100781.08;1778804;80;25756;-66
2021/09/02 07:15:36;;;;;;;8.63;4.35;;;;;;;14.21;75.25;100789.63;1778935;80;25694;-66
2021/09/02 07:18:03;;;;;;;13.83;4.60;;;;;;;14.25;75.53;100816.45;1778915;80;25678;-66
2021/09/02 07:20:30;;;;;;;11.48;4.60;;;;;;;14.26;75.66;100825.41;1778853;80;25728;-66
2021/09/02 07:22:57;;;;;;;19.45;6.03;;;;;;;14.30;75.70;100833.16;1778847;80;27380;-66
2021/09/02 07:25:24;;;;;;;9.53;5.17;;;;;;;14.32;76.05;100837.70;1778848;80;25681;-66
2021/09/02 07:27:50;;;;;;;10.98;5.83;;;;;;;14.32;76.05;100837.70;1778880;80;25712;-66
2021/09/02 07:30:16;;;;;;;9.70;4.90;;;;;;;14.32;76.37;100840.43;1778803;80;26218;-66
2021/09/02 07:32:43;;;;;;;11.85;5.35;;;;;;;14.32;76.59;100830.91;1746319;80;25742;-66
2021/09/02 07:35:11;;;;;;;10.55;4.47;;;;;;;14.32;76.62;100824.92;1778854;80;27381;-66
2021/09/02 07:37:37;;;;;;;9.78;4.92;;;;;;;14.34;76.99;100815.88;1778849;80;25724;-66
2021/09/02 07:40:06;;;;;;;11.20;5.05;;;;;;;14.38;77.50;100811.38;1778882;80;25799;-66
2021/09/02 07:42:32;;;;;;;12.47;5.35;;;;;;;14.42;77.27;100806.66;1778711;80;26048;-66
2021/09/02 07:44:58;;;;;;;11.55;5.00;;;;;;;14.47;77.84;100813.29;1778936;80;25721;-66
2021/09/02 07:47:25;;;;;;;9.50;5.30;;;;;;;14.55;78.06;100811.13;1778990;80;29401;-66
2021/09/02 07:49:51;;;;;;;11.90;5.60;;;;;;;14.63;78.41;100813.06;1778733;80;25675;-66
2021/09/02 07:52:17;;;;;;;7.53;4.90;;;;;;;14.82;79.02;100822.80;1778916;80;29841;-66
2021/09/02 07:54:43;;;;;;;11.68;5.50;;;;;;;15.04;78.74;100815.75;1778849;80;25707;-66
2021/09/02 07:57:11;;;;;;;9.20;4.72;;;;;;;15.38;79.04;100816.72;1778847;80;25725;-66
2021/09/02 07:59:37;;;;;;;13.20;5.03;;;;;;;15.57;77.44;100812.78;1778900;80;27275;-66
2021/09/02 08:02:04;;;;;;;8.68;4.62;;;;;;;15.66;77.03;100815.69;1778829;80;25685;-66
2021/09/02 08:04:30;;;;;;;14.63;5.37;;;;;;;15.75;75.95;100818.91;1746323;80;25745;-65
2021/09/02 08:06:56;;;;;;;9.20;5.47;;;;;;;15.77;76.15;100817.48;1778874;80;25704;-65
2021/09/02 08:09:23;;;;;;;10.15;4.78;;;;;;;15.88;75.83;100819.25;1778893;80;25720;-65
2021/09/02 08:11:49;;;;;;;12.75;5.12;;;;;;;15.98;75.55;100813.40;1778855;80;28184;-65
2021/09/02 08:14:15;;;;;;;10.20;5.15;;;;;;;16.08;75.47;100816.30;1778868;80;25790;-65
2021/09/02 08:16:42;;;;;;;10.05;5.20;;;;;;;16.18;75.32;100821.34;1741115;80;25833;-65
2021/09/02 08:19:08;;;;;;;7.90;3.95;;;;;;;16.25;74.99;100822.97;1778837;80;25972;-65
2021/09/02 08:21:34;;;;;;;6.70;4.67;;;;;;;16.34;74.57;100823.47;1778802;80;25689;-65
2021/09/02 08:24:01;;;;;;;7.55;4.72;;;;;;;16.58;75.03;100829.58;1778790;80;27860;-65
2021/09/02 08:26:28;;;;;;;7.10;4.37;;;;;;;17.05;77.20;100829.27;1778749;80;25824;-65
2021/09/02 08:28:55;;;;;;;7.72;4.85;;;;;;;17.59;74.84;100824.70;1778841;80;25819;-66
2021/09/02 08:31:21;;;;;;;6.53;4.03;;;;;;;17.93;74.04;100826.19;1746205;80;26319;-66
2021/09/02 08:33:47;;;;;;;8.98;4.12;;;;;;;18.22;73.29;100823.70;1778704;80;25768;-66
2021/09/02 08:36:14;;;;;;;10.75;4.90;;;;;;;18.42;71.94;100824.66;1746225;80;28276;-65
2021/09/02 08:38:42;;;;;;;11.75;4.65;;;;;;;18.54;70.96;100829.28;1778704;80;25948;-65
2021/09/02 08:41:09;;;;;;;8.88;4.67;;;;;;;18.69;70.67;100832.39;1778927;80;26444;-65
2021/09/02 08:43:38;;;;;;;6.78;4.35;;;;;;;18.77;69.14;100837.70;1771903;80;25744;-65
2021/09/02 08:46:05;;;;;;;8.43;4.30;;;;;;;18.77;68.39;100839.66;1771263;81;25645;-65
2021/09/02 08:48:32;;;;;;;8.18;4.37;;;;;;;18.76;67.95;100840.79;1771140;81;27373;-65
2021/09/02 08:50:58;;;;;;;8.75;4.17;;;;;;;18.81;68.45;100838.61;1771076;81;26412;-65
2021/09/02 08:53:25;;;;;;;6.53;3.75;;;;;;;18.88;67.92;100839.95;1751622;81;25830;-65
2021/09/02 08:55:51;;;;;;;7.53;3.80;;;;;;;18.91;67.78;100857.06;1751614;81;26362;-66
2021/09/02 08:58:17;;;;;;;6.65;3.67;;;;;;;18.91;67.23;100848.84;1771232;81;25776;-66
2021/09/02 09:00:43;;;;;;;8.43;4.83;;;;;;;18.92;67.02;100855.35;1771138;81;27301;-66
2021/09/02 09:03:10;;;;;;;12.75;4.92;;;;;;;18.94;66.61;100855.00;1770860;81;25679;-66
2021/09/02 09:05:37;;;;;;;6.22;4.08;;;;;;;18.94;66.13;100857.16;1771133;81;25692;-65
2021/09/02 09:08:08;;;;;;;6.87;4.20;;;;;;;18.90;65.73;100863.69;1771152;81;26605;-65
2021/09/02 09:10:35;;;;;;;8.33;4.28;;;;;;;18.90;66.21;100867.24;1770651;81;25692;-65
2021/09/02 09:13:04;;;;;;;13.05;4.70;;;;;;;18.99;66.00;100864.33;1771216;81;27310;-66
2021/09/02 09:15:41;;;;;;;12.58;4.55;;;;;;;19.19;66.78;100857.02;1771258;81;25735;-65
2021/09/02 09:18:23;;;;;;;8.95;4.70;;;;;;;19.90;68.08;100866.16;1771122;81;25713;-65
2021/09/02 09:21:12;;;;;;;6.97;3.90;;;;;;;20.98;67.89;100856.52;1771171;81;25644;-65
2021/09/02 09:24:05;;;;;;;5.58;3.40;;;;;;;21.73;65.42;100852.22;1771110;81;25661;-66
2021/09/02 09:26:33;;;;;;;5.12;3.80;;;;;;;22.59;64.24;100860.00;1771212;81;27281;-65
2021/09/02 09:29:17;;;;;;;8.38;4.03;;;;;;;23.20;61.14;100860.02;1771334;81;25767;-65
2021/09/02 09:31:44;;;;;;;6.75;3.50;;;;;;;23.40;58.90;100862.55;1771067;81;25778;-65
2021/09/02 09:34:10;;;;;;;4.40;3.20;;;;;;;23.95;58.99;100860.34;1771112;81;25670;-66
2021/09/02 09:36:39;;;;;;;6.08;3.30;;;;;;;24.50;57.63;100856.03;1771225;81;26275;-65
2021/09/02 09:39:13;;;;;;;8.95;4.00;;;;;;;24.71;55.50;100855.31;1771202;81;27434;-66
2021/09/02 09:41:43;;;;;;;4.55;3.30;;;;;;;24.88;54.49;100852.38;1770469;80;27189;-65
2021/09/02 09:44:29;;;;;;;5.05;3.20;;;;;;;24.85;53.79;100853.16;1778696;80;25617;-65
2021/09/02 09:47:19;;;;;;;4.78;3.17;;;;;;;25.24;53.28;100860.69;1778763;80;27774;-65
2021/09/02 09:50:02;;;;;;;6.83;2.90;;;;;;;25.84;52.86;100854.88;1778910;80;25730;-67
2021/09/02 09:52:37;;;;;;;5.70;2.55;;;;;;;26.12;50.61;100854.63;1778719;80;27339;-67
2021/09/02 09:55:11;;;;;;;7.53;3.17;;;;;;;25.84;48.12;100856.27;1778740;80;25852;-65
2021/09/02 09:57:41;;;;;;;4.20;3.22;;;;;;;25.73;47.93;100861.84;1778857;80;25716;-66
2021/09/02 10:00:14;;;;;;;;;;;;;;;25.85;48.07;100864.00;1781379;80;26321;-66
2021/09/02 10:02:44;;;;;;;3.30;2.52;;;;;;;25.92;46.30;100865.36;1778874;80;25716;-65
2021/09/02 10:05:14;;;;;;;4.85;2.47;;;;;;;25.77;45.68;100866.59;1777840;80;27885;-65
2021/09/02 10:07:44;;;;;;;5.70;3.05;;;;;;;25.78;45.76;100871.73;1778566;80;26108;-66
2021/09/02 10:10:14;;;;;;;5.70;3.00;;;;;;;25.56;45.42;100874.33;1778772;80;25774;-66
2021/09/02 10:12:43;;;;;;;5.28;3.02;;;;;;;25.30;45.36;100877.72;1778775;80;25724;-66
2021/09/02 10:15:16;;;;;;;4.50;2.90;;;;;;;25.21;45.93;100873.15;1777548;80;25676;-66
2021/09/02 10:17:44;;;;;;;7.03;2.65;;;;;;;25.57;45.63;100875.92;1778789;80;27339;-65
2021/09/02 10:20:18;;;;;;;3.90;2.98;;;;;;;25.39;44.99;100875.92;1778612;80;25789;-66
2021/09/02 10:22:47;;;;;;;4.67;2.77;;;;;;;25.13;45.33;100873.73;1778770;80;25700;-65
2021/09/02 10:25:37;;;;;;;5.55;2.55;;;;;;;25.10;45.29;100878.09;1741786;80;25752;-65
2021/09/02 10:28:30;;;;;;;3.52;2.75;;;;;;;25.35;45.16;100873.16;1778912;80;25800;-66
2021/09/02 10:31:01;;;;;;;4.05;2.60;;;;;;;25.35;44.76;100879.52;1659008;84;27334;-66
2021/09/02 10:33:41;;;;;;;4.22;3.00;;;;;;;25.12;44.59;100881.25;1658454;86;25820;-65
2021/09/02 10:36:19;;;;;;;3.12;2.50;;;;;;;25.22;44.83;100879.67;1658286;86;25876;-65
2021/09/02 10:38:55;;;;;;;4.15;2.47;;;;;;;25.77;43.57;100876.28;1658473;86;25722;-65
2021/09/02 10:41:44;;;;;;;2.85;2.20;;;;;;;26.40;42.60;100874.49;1658431;86;25805;-66
2021/09/02 10:44:13;;;;;;;3.37;2.25;;;;;;;27.05;42.01;100876.89;1671875;85;28028;-67
2021/09/02 10:46:43;;;;;;;;;;;;;;;27.81;41.25;100888.14;1673949;85;25789;-67
2021/09/02 10:49:26;;;;;;;4.25;2.50;;;;;;;28.24;40.00;100894.61;1662804;85;25806;-67
2021/09/02 10:52:07;;;;;;;8.10;2.42;;;;;;;28.80;39.77;100891.50;1657523;86;26316;-66
2021/09/02 10:54:39;;;;;;;2.83;2.02;;;;;;;29.31;38.50;100892.14;1652966;86;25753;-67
2021/09/02 10:57:09;;;;;;;2.62;1.80;;;;;;;29.54;37.39;100894.11;1653843;86;27299;-66
2021/09/02 10:59:45;;;;;;;2.40;1.90;;;;;;;29.58;36.98;100878.91;1655318;85;25726;-67
2021/09/02 11:02:19;;;;;;;3.77;2.27;;;;;;;29.91;36.83;100881.89;1651508;86;26494;-67
2021/09/02 11:05:01;;;;;;;3.05;2.17;;;;;;;30.34;35.58;100877.43;1649308;86;25783;-67
2021/09/02 11:07:50;;;;;;;3.90;2.22;;;;;;;30.47;34.95;100875.58;1730125;81;25648;-67
2021/09/02 11:10:20;;;;;;;2.20;1.65;;;;;;;30.91;34.46;100880.97;1754296;81;27443;-68
2021/09/02 11:12:50;;;;;;;3.05;2.08;;;;;;;31.26;33.93;100876.54;1754162;81;25760;-67
2021/09/02 11:15:26;;;;;;;2.87;1.82;;;;;;;30.89;32.88;100873.02;1752818;81;25687;-68
2021/09/02 11:17:56;;;;;;;2.62;1.50;;;;;;;30.41;32.02;100873.14;1754019;81;26396;-68
2021/09/02 11:20:38;;;;;;;3.90;1.90;;;;;;;29.82;32.87;100872.55;1753775;81;25695;-68
2021/09/02 11:23:12;;;;;;;3.25;1.50;;;;;;;29.90;32.96;100878.14;1752769;81;28061;-67
2021/09/02 11:25:51;;;;;;;2.70;1.85;;;;;;;29.99;32.68;100879.14;1752267;80;25833;-67
2021/09/02 11:28:22;;;;;;;4.85;2.00;;;;;;;29.71;32.08;100883.84;1781579;80;25656;-66